createdAt,value
2023-02-18T00:02:03.797Z,74.73
2023-02-18T00:04:34.183Z,74.77
2023-02-18T00:07:04.491Z,74.73
2023-02-18T00:09:34.460Z,74.56
2023-02-18T00:12:04.536Z,74.55
2023-02-18T00:14:34.429Z,74.90
2023-02-18T00:17:06.875Z,74.84
2023-02-18T00:19:36.797Z,75.00
2023-02-18T00:22:06.762Z,74.78
2023-02-18T00:24:36.854Z,74.79
2023-02-18T00:27:07.464Z,74.58
2023-02-18T00:29:37.946Z,74.80
2023-02-18T00:32:11.457Z,74.85
2023-02-18T00:34:41.553Z,74.89
2023-02-18T00:37:11.659Z,74.66
2023-02-18T00:39:41.492Z,74.83
2023-02-18T00:42:11.570Z,74.82
2023-02-18T00:44:41.594Z,74.75
2023-02-18T00:47:14.052Z,74.61
2023-02-18T00:49:44.787Z,74.91
2023-02-18T00:52:15.057Z,74.91
2023-02-18T00:54:45.069Z,75.14
2023-02-18T00:57:15.386Z,75.09
2023-02-18T00:59:45.279Z,75.33
2023-02-18T01:02:17.794Z,75.47
2023-02-18T01:04:47.634Z,75.35
2023-02-18T01:07:17.484Z,75.25
2023-02-18T01:09:47.400Z,75.02
2023-02-18T01:12:17.785Z,74.95
2023-02-18T01:14:47.727Z,74.95
2023-02-18T01:17:20.879Z,74.98
2023-02-18T01:19:50.704Z,74.86
2023-02-18T01:22:20.712Z,74.88
2023-02-18T01:24:50.751Z,75.20
2023-02-18T01:27:20.786Z,74.87
2023-02-18T01:29:50.765Z,74.89
2023-02-18T01:32:24.292Z,74.49
2023-02-18T01:34:54.276Z,74.70
2023-02-18T01:37:25.415Z,74.57
2023-02-18T01:39:55.447Z,74.89
2023-02-18T01:42:28.184Z,74.40
2023-02-18T01:45:29.240Z,74.43
2023-02-18T01:48:02.484Z,74.28
2023-02-18T01:50:33.365Z,74.56
2023-02-18T01:53:04.156Z,74.46
2023-02-18T01:55:35.835Z,74.42
2023-02-18T01:58:06.749Z,74.34
2023-02-18T02:00:37.167Z,74.38
2023-02-18T02:03:09.856Z,74.43
2023-02-18T02:05:39.861Z,74.57
2023-02-18T02:08:10.688Z,74.40
2023-02-18T02:10:56.195Z,74.68
2023-02-18T02:13:38.065Z,74.73
2023-02-18T02:16:15.079Z,74.86
2023-02-18T02:18:59.152Z,74.66
2023-02-18T02:21:55.687Z,74.49
2023-02-18T02:24:56.024Z,74.92
2023-02-18T02:27:29.234Z,74.88
2023-02-18T02:30:40.091Z,74.69
2023-02-18T02:33:40.186Z,74.69
2023-02-18T02:36:17.245Z,75.00
2023-02-18T02:38:57.008Z,74.88
2023-02-18T02:41:39.289Z,74.82
2023-02-18T02:44:19.983Z,74.95
2023-02-18T02:46:55.312Z,75.08
2023-02-18T02:49:40.678Z,75.24
2023-02-18T02:52:18.420Z,75.21
2023-02-18T02:54:49.373Z,75.24
2023-02-18T02:57:48.501Z,75.28
2023-02-18T03:00:32.600Z,75.17
2023-02-18T03:03:25.740Z,75.21
2023-02-18T03:06:14.309Z,75.41
2023-02-18T03:08:55.071Z,75.53
2023-02-18T03:11:25.321Z,75.56
2023-02-18T03:14:03.783Z,75.40
2023-02-18T03:16:45.399Z,75.84
2023-02-18T03:19:21.682Z,75.72
2023-02-18T03:21:58.787Z,75.75
2023-02-18T03:24:35.672Z,76.05
2023-02-18T03:27:12.708Z,76.15
2023-02-18T03:29:46.025Z,76.28
2023-02-18T03:32:21.845Z,76.37
2023-02-18T03:34:54.401Z,76.31
2023-02-18T03:37:25.260Z,76.59
2023-02-18T03:40:02.775Z,76.76
2023-02-18T03:42:35.233Z,76.62
2023-02-18T03:45:05.096Z,76.84
2023-02-18T03:47:35.989Z,76.83
2023-02-18T03:50:08.801Z,77.01
2023-02-18T03:52:39.412Z,77.19
2023-02-18T03:55:13.618Z,77.08
2023-02-18T03:57:43.584Z,77.19
2023-02-18T04:00:15.043Z,77.28
2023-02-18T04:02:45.644Z,77.26
2023-02-18T04:05:16.161Z,77.14
2023-02-18T04:07:46.023Z,77.43
2023-02-18T04:10:19.350Z,77.64
2023-02-18T04:12:49.333Z,77.85
2023-02-18T04:15:19.867Z,77.83
2023-02-18T04:17:49.817Z,77.97
2023-02-18T04:20:20.606Z,78.18
2023-02-18T04:22:50.474Z,78.17
2023-02-18T04:25:23.204Z,78.24
2023-02-18T04:27:54.318Z,78.52
2023-02-18T04:30:24.807Z,78.50
2023-02-18T04:32:54.785Z,78.56
2023-02-18T04:35:26.817Z,78.55
2023-02-18T04:37:56.858Z,78.96
2023-02-18T04:40:31.011Z,78.97
2023-02-18T04:43:01.472Z,79.32
2023-02-18T04:45:32.116Z,79.32
2023-02-18T04:48:02.137Z,79.72
2023-02-18T04:50:32.156Z,79.79
2023-02-18T04:53:02.085Z,80.27
2023-02-18T04:55:34.630Z,80.52
2023-02-18T04:58:04.590Z,80.61
2023-02-18T05:00:34.785Z,80.71
2023-02-18T05:03:04.681Z,80.92
2023-02-18T05:05:34.530Z,81.15
2023-02-18T05:08:04.496Z,81.15
2023-02-18T05:10:37.707Z,81.33
2023-02-18T05:13:07.668Z,81.34
2023-02-18T05:15:37.919Z,81.15
2023-02-18T05:18:08.243Z,81.25
2023-02-18T05:20:38.740Z,81.62
2023-02-18T05:23:08.797Z,81.47
2023-02-18T05:25:41.275Z,81.36
2023-02-18T05:28:11.968Z,81.35
2023-02-18T05:30:42.072Z,81.52
2023-02-18T05:33:11.979Z,81.28
2023-02-18T05:35:41.903Z,81.14
2023-02-18T05:38:11.889Z,81.21
2023-02-18T05:40:44.735Z,81.09
2023-02-18T05:43:15.080Z,80.91
2023-02-18T05:45:45.152Z,81.12
2023-02-18T05:48:15.243Z,80.81
2023-02-18T05:50:45.443Z,81.05
2023-02-18T05:53:17.574Z,81.25
2023-02-18T05:55:50.556Z,81.00
2023-02-18T05:58:20.463Z,80.96
2023-02-18T06:00:52.606Z,80.98
2023-02-18T06:03:22.575Z,80.98
2023-02-18T06:05:52.749Z,81.27
2023-02-18T06:08:22.855Z,81.19
2023-02-18T06:10:55.363Z,81.63
2023-02-18T06:13:25.449Z,81.81
2023-02-18T06:15:55.672Z,81.71
2023-02-18T06:18:25.915Z,81.66
2023-02-18T06:20:55.780Z,81.84
2023-02-18T06:23:25.556Z,81.82
2023-02-18T06:26:00.290Z,81.89
2023-02-18T06:28:30.279Z,81.68
2023-02-18T06:31:00.658Z,81.72
2023-02-18T06:33:30.828Z,81.69
2023-02-18T06:36:03.207Z,81.56
2023-02-18T06:38:33.500Z,81.65
2023-02-18T06:41:06.677Z,81.86
2023-02-18T06:43:36.778Z,81.84
2023-02-18T06:46:07.324Z,81.70
2023-02-18T06:48:38.274Z,81.69
2023-02-18T06:51:09.155Z,81.94
2023-02-18T06:53:38.965Z,81.79
2023-02-18T06:56:11.634Z,81.73
2023-02-18T06:58:42.616Z,82.12
2023-02-18T07:01:12.724Z,82.22
2023-02-18T07:03:42.754Z,82.05
2023-02-18T07:06:12.727Z,82.17
2023-02-18T07:08:43.159Z,82.16
2023-02-18T07:11:16.038Z,82.40
2023-02-18T07:13:45.831Z,82.52
2023-02-18T07:16:15.884Z,82.24
2023-02-18T07:18:49.140Z,82.54
2023-02-18T07:21:19.509Z,82.35
2023-02-18T07:23:49.401Z,82.45
2023-02-18T07:26:21.928Z,82.64
2023-02-18T07:28:51.870Z,82.57
2023-02-18T07:31:22.006Z,82.58
2023-02-18T07:33:51.887Z,82.96
2023-02-18T07:36:21.823Z,83.01
2023-02-18T07:38:51.665Z,83.04
2023-02-18T07:41:25.955Z,83.24
2023-02-18T07:43:55.702Z,83.80
2023-02-18T07:46:25.912Z,83.29
2023-02-18T07:48:55.901Z,83.26
2023-02-18T07:51:26.114Z,83.22
2023-02-18T07:53:56.048Z,83.10
2023-02-18T07:56:29.805Z,82.86
2023-02-18T07:58:59.626Z,82.95
2023-02-18T08:01:29.539Z,82.94
2023-02-18T08:04:00.789Z,82.85
2023-02-18T08:06:34.441Z,82.60
2023-02-18T08:09:04.513Z,82.40
2023-02-18T08:11:37.805Z,82.50
2023-02-18T08:14:08.151Z,82.45
2023-02-18T08:16:38.619Z,82.44
2023-02-18T08:19:08.728Z,82.14
2023-02-18T08:21:38.873Z,82.31
2023-02-18T08:24:10.460Z,82.18
2023-02-18T08:26:59.179Z,81.95
2023-02-18T08:29:30.241Z,82.20
2023-02-18T08:32:00.535Z,82.44
2023-02-18T08:34:30.414Z,82.50
2023-02-18T08:37:00.262Z,82.26
2023-02-18T08:39:30.294Z,82.29
2023-02-18T08:42:02.942Z,82.36
2023-02-18T08:44:32.948Z,82.28
2023-02-18T08:47:02.829Z,82.35
2023-02-18T08:49:32.913Z,82.52
2023-02-18T08:52:02.830Z,82.19
2023-02-18T08:54:33.160Z,82.35
2023-02-18T08:57:05.722Z,82.42
2023-02-18T08:59:35.750Z,82.69
2023-02-18T09:02:05.615Z,83.00
2023-02-18T09:04:35.990Z,82.81
2023-02-18T09:07:06.321Z,82.56
2023-02-18T09:09:36.335Z,82.24
2023-02-18T09:12:09.524Z,82.40
2023-02-18T09:14:39.684Z,82.39
2023-02-18T09:17:09.791Z,82.38
2023-02-18T09:19:40.005Z,82.19
2023-02-18T09:22:09.958Z,82.00
2023-02-18T09:24:40.992Z,81.73
2023-02-18T09:27:13.927Z,81.78
2023-02-18T09:29:45.169Z,81.04
2023-02-18T09:32:25.448Z,81.38
2023-02-18T09:35:02.850Z,81.06
2023-02-18T09:37:33.126Z,80.86
2023-02-18T09:40:03.392Z,81.20
2023-02-18T09:42:37.798Z,80.59
2023-02-18T09:45:14.271Z,81.27
2023-02-18T09:47:46.484Z,81.02
2023-02-18T09:50:26.411Z,81.10
2023-02-18T09:52:56.641Z,81.08
2023-02-18T09:55:30.240Z,81.21
2023-02-18T09:58:06.154Z,81.69
2023-02-18T10:00:39.947Z,81.61
2023-02-18T10:03:16.154Z,82.17
2023-02-18T10:05:56.725Z,82.18
2023-02-18T10:08:30.409Z,81.89
2023-02-18T10:11:00.567Z,81.72
2023-02-18T10:13:37.187Z,81.75
2023-02-18T10:16:09.071Z,81.71
2023-02-18T10:18:45.299Z,81.78
2023-02-18T10:21:18.516Z,82.11
2023-02-18T10:23:57.651Z,82.64
2023-02-18T10:26:27.923Z,82.71
2023-02-18T10:29:01.509Z,82.80
2023-02-18T10:31:36.320Z,83.00
2023-02-18T10:34:16.075Z,83.24
2023-02-18T10:36:48.514Z,83.59
2023-02-18T10:39:39.792Z,83.80
2023-02-18T10:42:23.600Z,84.42
2023-02-18T10:45:06.384Z,84.69
2023-02-18T10:47:42.241Z,84.19
2023-02-18T10:50:15.632Z,84.45
2023-02-18T10:52:50.449Z,84.40
2023-02-18T10:55:22.170Z,84.38
2023-02-18T10:57:54.213Z,84.12
2023-02-18T11:00:29.081Z,83.58
2023-02-18T11:03:16.256Z,82.94
2023-02-18T11:05:47.255Z,82.92
2023-02-18T11:08:21.740Z,82.68
2023-02-18T11:10:52.546Z,82.33
2023-02-18T11:13:29.763Z,82.32
2023-02-18T11:16:04.759Z,82.10
2023-02-18T11:18:41.374Z,82.33
2023-02-18T11:21:26.862Z,82.81
2023-02-18T11:23:58.535Z,83.42
2023-02-18T11:26:35.032Z,83.82
2023-02-18T11:29:09.544Z,84.36
2023-02-18T11:31:47.036Z,84.79
2023-02-18T11:34:21.252Z,84.93
2023-02-18T11:36:51.113Z,86.98
2023-02-18T11:39:24.574Z,85.72
2023-02-18T11:41:59.499Z,85.55
2023-02-18T11:44:32.598Z,85.37
2023-02-18T11:47:07.965Z,85.32
2023-02-18T11:49:38.501Z,85.43
2023-02-18T11:52:19.983Z,85.21
2023-02-18T11:55:03.427Z,85.10
2023-02-18T11:57:35.255Z,85.31
2023-02-18T12:00:18.678Z,85.32
2023-02-18T12:02:52.480Z,85.53
2023-02-18T12:05:26.404Z,85.69
2023-02-18T12:08:02.610Z,85.31
2023-02-18T12:10:37.738Z,85.09
2023-02-18T12:13:13.624Z,85.07
2023-02-18T12:15:55.636Z,84.80
2023-02-18T12:18:53.840Z,84.53
2023-02-18T12:21:39.302Z,84.22
2023-02-18T12:24:22.426Z,84.07
2023-02-18T12:26:58.907Z,83.92
2023-02-18T12:29:46.260Z,83.92
2023-02-18T12:32:26.919Z,84.19
2023-02-18T12:35:13.397Z,84.47
2023-02-18T12:38:04.534Z,85.09
2023-02-18T12:41:08.071Z,85.22
2023-02-18T12:43:51.551Z,85.70
2023-02-18T12:46:43.037Z,85.66
2023-02-18T12:49:26.448Z,85.73
2023-02-18T12:52:21.460Z,85.22
2023-02-18T12:55:08.490Z,85.09
2023-02-18T12:57:46.054Z,84.92
2023-02-18T13:00:51.641Z,84.43
2023-02-18T13:03:41.366Z,84.52
2023-02-18T13:06:24.563Z,84.25
2023-02-18T13:09:08.237Z,84.52
2023-02-18T13:11:49.412Z,84.77
2023-02-18T13:14:23.539Z,85.18
2023-02-18T13:16:56.511Z,86.12
2023-02-18T13:19:29.596Z,85.34
2023-02-18T13:22:04.468Z,84.77
2023-02-18T13:24:39.180Z,84.82
2023-02-18T13:27:18.008Z,84.76
2023-02-18T13:29:54.014Z,84.83
2023-02-18T13:32:29.671Z,85.00
2023-02-18T13:35:07.762Z,84.91
2023-02-18T13:37:47.073Z,85.16
2023-02-18T13:40:24.279Z,85.43
2023-02-18T13:42:54.786Z,85.37
2023-02-18T13:45:32.841Z,85.77
2023-02-18T13:48:03.596Z,86.07
2023-02-18T13:50:43.228Z,86.43
2023-02-18T13:53:26.358Z,86.54
2023-02-18T13:56:13.171Z,86.31
2023-02-18T13:58:46.166Z,86.48
2023-02-18T14:01:24.169Z,86.49
2023-02-18T14:04:00.369Z,86.53
2023-02-18T14:06:33.612Z,86.61
2023-02-18T14:09:24.033Z,86.35
2023-02-18T14:12:17.921Z,86.30
2023-02-18T14:14:48.498Z,86.39
2023-02-18T14:17:45.154Z,86.49
2023-02-18T14:20:51.527Z,87.29
2023-02-18T14:23:47.492Z,87.46
2023-02-18T14:26:26.282Z,87.29
2023-02-18T14:29:03.211Z,87.44
2023-02-18T14:31:51.493Z,87.59
2023-02-18T14:34:54.029Z,87.24
2023-02-18T14:37:45.897Z,87.52
2023-02-18T14:40:29.510Z,87.35
2023-02-18T14:43:09.228Z,87.51
2023-02-18T14:46:03.102Z,87.56
2023-02-18T14:48:50.487Z,87.39
2023-02-18T14:51:24.508Z,87.27
2023-02-18T14:53:55.382Z,87.15
2023-02-18T14:56:26.277Z,86.84
2023-02-18T14:59:01.414Z,86.74
2023-02-18T15:01:36.103Z,86.58
2023-02-18T15:04:07.181Z,86.74
2023-02-18T15:06:40.405Z,86.94
2023-02-18T15:09:17.266Z,86.57
2023-02-18T15:11:50.525Z,86.74
2023-02-18T15:14:23.684Z,86.64
2023-02-18T15:16:56.763Z,86.62
2023-02-18T15:19:31.624Z,86.83
2023-02-18T15:22:01.840Z,86.67
2023-02-18T15:24:35.657Z,86.55
2023-02-18T15:27:14.040Z,86.70
2023-02-18T15:29:44.674Z,86.74
2023-02-18T15:32:23.150Z,86.66
2023-02-18T15:34:54.624Z,86.66
2023-02-18T15:37:25.047Z,86.33
2023-02-18T15:39:55.345Z,86.67
2023-02-18T15:42:30.285Z,86.66
2023-02-18T15:45:05.276Z,86.67
2023-02-18T15:47:37.854Z,86.48
2023-02-18T15:50:09.451Z,86.23
2023-02-18T15:52:42.000Z,86.66
2023-02-18T15:55:18.170Z,86.31
2023-02-18T15:57:48.365Z,86.60
2023-02-18T16:00:22.573Z,86.99
2023-02-18T16:02:58.672Z,86.87
2023-02-18T16:05:30.529Z,86.92
2023-02-18T16:08:03.520Z,86.78
2023-02-18T16:10:47.501Z,86.65
2023-02-18T16:13:19.781Z,86.90
2023-02-18T16:15:52.046Z,86.89
2023-02-18T16:18:33.999Z,86.97
2023-02-18T16:21:07.316Z,87.22
2023-02-18T16:23:43.578Z,86.94
2023-02-18T16:26:23.327Z,86.71
2023-02-18T16:28:55.565Z,86.41
2023-02-18T16:31:25.518Z,86.64
2023-02-18T16:34:00.493Z,86.19
2023-02-18T16:36:30.564Z,86.18
2023-02-18T16:39:02.071Z,86.19
2023-02-18T16:41:32.374Z,86.00
2023-02-18T16:44:02.250Z,85.83
2023-02-18T16:46:32.169Z,85.78
2023-02-18T16:49:04.653Z,85.75
2023-02-18T16:51:37.408Z,85.78
2023-02-18T16:54:07.443Z,85.83
2023-02-18T16:56:39.829Z,85.73
2023-02-18T16:59:10.428Z,85.83
2023-02-18T17:01:44.973Z,86.02
2023-02-18T17:04:18.257Z,86.60
2023-02-18T17:06:49.069Z,86.25
2023-02-18T17:09:22.103Z,85.47
2023-02-18T17:11:54.760Z,85.64
2023-02-18T17:14:25.604Z,85.38
2023-02-18T17:16:57.711Z,85.19
2023-02-18T17:19:30.294Z,84.98
2023-02-18T17:22:00.414Z,84.87
2023-02-18T17:24:30.357Z,84.96
2023-02-18T17:27:00.364Z,84.80
2023-02-18T17:29:30.367Z,84.61
2023-02-18T17:32:00.917Z,84.66
2023-02-18T17:34:36.359Z,84.44
2023-02-18T17:37:06.277Z,84.57
2023-02-18T17:39:36.214Z,84.60
2023-02-18T17:42:06.405Z,84.46
2023-02-18T17:44:36.359Z,84.41
2023-02-18T17:47:06.418Z,84.17
2023-02-18T17:49:38.958Z,84.43
2023-02-18T17:52:10.314Z,84.30
2023-02-18T17:54:40.250Z,84.30
2023-02-18T17:57:11.660Z,84.07
2023-02-18T17:59:41.759Z,84.27
2023-02-18T18:02:25.475Z,84.15
2023-02-18T18:04:58.211Z,84.34
2023-02-18T18:07:29.091Z,84.52
2023-02-18T18:10:01.863Z,84.47
2023-02-18T18:12:33.163Z,84.62
2023-02-18T18:15:03.339Z,84.27
2023-02-18T18:17:33.356Z,83.92
2023-02-18T18:20:06.037Z,83.44
2023-02-18T18:22:35.951Z,83.21
2023-02-18T18:25:12.648Z,83.22
2023-02-18T18:27:42.539Z,83.14
2023-02-18T18:30:13.418Z,83.07
2023-02-18T18:32:44.587Z,83.07
2023-02-18T18:35:30.116Z,83.30
2023-02-18T18:38:00.475Z,83.17
2023-02-18T18:40:32.320Z,83.49
2023-02-18T18:43:04.548Z,83.21
2023-02-18T18:45:37.379Z,83.35
2023-02-18T18:48:08.018Z,83.15
2023-02-18T18:50:42.129Z,83.24
2023-02-18T18:53:20.176Z,82.99
2023-02-18T18:55:51.768Z,82.97
2023-02-18T18:58:24.755Z,82.83
2023-02-18T19:00:56.964Z,83.08
2023-02-18T19:03:28.919Z,83.00
2023-02-18T19:06:01.443Z,83.07
2023-02-18T19:08:32.411Z,83.05
2023-02-18T19:11:02.453Z,83.06
2023-02-18T19:13:36.025Z,82.95
2023-02-18T19:16:10.230Z,83.02
2023-02-18T19:18:40.349Z,82.93
2023-02-18T19:21:15.745Z,83.19
2023-02-18T19:23:45.736Z,83.12
2023-02-18T19:26:17.925Z,83.04
2023-02-18T19:28:49.080Z,83.17
2023-02-18T19:31:24.176Z,82.65
2023-02-18T19:33:55.608Z,82.87
2023-02-18T19:36:28.563Z,83.04
2023-02-18T19:38:59.486Z,83.02
2023-02-18T19:41:29.428Z,82.88
2023-02-18T19:43:59.288Z,82.83
2023-02-18T19:46:29.284Z,83.13
2023-02-18T19:48:59.232Z,83.32
2023-02-18T19:51:31.762Z,83.36
2023-02-18T19:54:03.419Z,83.43
2023-02-18T19:56:33.416Z,83.42
2023-02-18T19:59:03.282Z,83.49
2023-02-18T20:01:33.291Z,83.43
2023-02-18T20:04:03.586Z,83.53
2023-02-18T20:06:36.368Z,83.48
2023-02-18T20:09:06.517Z,83.39
2023-02-18T20:11:36.447Z,83.51
2023-02-18T20:14:06.359Z,83.40
2023-02-18T20:16:36.601Z,83.46
2023-02-18T20:19:06.540Z,83.68
2023-02-18T20:21:38.979Z,84.04
2023-02-18T20:24:09.832Z,83.75
2023-02-18T20:26:39.880Z,83.90
2023-02-18T20:29:10.046Z,83.92
2023-02-18T20:31:40.178Z,83.87
2023-02-18T20:34:10.054Z,83.86
2023-02-18T20:36:44.538Z,83.74
2023-02-18T20:39:16.385Z,83.47
2023-02-18T20:41:47.099Z,83.67
2023-02-18T20:44:18.455Z,83.50
2023-02-18T20:46:51.001Z,83.36
2023-02-18T20:49:23.119Z,83.47
2023-02-18T20:51:55.742Z,83.39
2023-02-18T20:54:26.569Z,83.50
2023-02-18T20:56:56.617Z,83.52
2023-02-18T20:59:26.979Z,83.54
2023-02-18T21:02:00.061Z,83.42
2023-02-18T21:04:30.241Z,83.48
2023-02-18T21:07:02.738Z,83.68
2023-02-18T21:09:32.653Z,83.80
2023-02-18T21:12:05.406Z,83.60
2023-02-18T21:14:35.263Z,83.65
2023-02-18T21:17:07.881Z,83.85
2023-02-18T21:19:38.910Z,83.60
2023-02-18T21:22:11.654Z,83.85
2023-02-18T21:24:42.008Z,83.81
2023-02-18T21:27:13.063Z,83.80
2023-02-18T21:29:42.992Z,84.03
2023-02-18T21:32:13.250Z,84.15
2023-02-18T21:34:43.377Z,84.16
2023-02-18T21:37:16.292Z,83.87
2023-02-18T21:39:46.509Z,83.99
2023-02-18T21:42:16.826Z,83.58
2023-02-18T21:44:46.886Z,83.78
2023-02-18T21:47:16.682Z,83.79
2023-02-18T21:49:46.897Z,83.74
2023-02-18T21:52:19.494Z,83.65
2023-02-18T21:54:49.671Z,83.85
2023-02-18T21:57:22.101Z,83.61
2023-02-18T21:59:52.219Z,83.68
2023-02-18T22:02:25.231Z,83.84
2023-02-18T22:04:56.043Z,83.87
2023-02-18T22:07:30.009Z,83.68
2023-02-18T22:10:01.221Z,83.77
2023-02-18T22:12:32.355Z,84.10
2023-02-18T22:15:05.521Z,83.92
2023-02-18T22:17:35.579Z,84.06
2023-02-18T22:20:05.884Z,84.24
2023-02-18T22:22:38.513Z,84.23
2023-02-18T22:25:11.258Z,84.06
2023-02-18T22:27:41.059Z,84.14
2023-02-18T22:30:12.327Z,84.33
2023-02-18T22:32:42.479Z,84.26
2023-02-18T22:35:13.915Z,84.17
2023-02-18T22:37:50.000Z,84.44
2023-02-18T22:40:22.462Z,84.28
2023-02-18T22:42:52.449Z,84.37
2023-02-18T22:45:22.517Z,84.42
2023-02-18T22:47:52.457Z,84.39
2023-02-18T22:50:22.557Z,84.46
2023-02-18T22:52:55.265Z,84.57
2023-02-18T22:55:25.611Z,84.69
2023-02-18T22:57:55.558Z,84.57
2023-02-18T23:00:28.416Z,84.31
2023-02-18T23:02:58.356Z,84.57
2023-02-18T23:05:28.582Z,84.66
2023-02-18T23:08:01.167Z,84.73
2023-02-18T23:10:31.080Z,84.47
2023-02-18T23:13:01.289Z,84.52
2023-02-18T23:15:31.337Z,84.71
2023-02-18T23:18:02.153Z,84.60
2023-02-18T23:20:44.525Z,84.79
2023-02-18T23:23:17.243Z,84.67
2023-02-18T23:25:47.710Z,84.60
2023-02-18T23:28:17.869Z,84.58
2023-02-18T23:30:47.890Z,84.97
2023-02-18T23:33:17.774Z,84.72
2023-02-18T23:35:47.705Z,84.77
2023-02-18T23:38:20.107Z,84.63
2023-02-18T23:40:50.861Z,84.57
2023-02-18T23:43:21.371Z,84.72
2023-02-18T23:45:51.850Z,85.00
2023-02-18T23:48:23.269Z,84.90
2023-02-18T23:50:53.201Z,85.14
2023-02-18T23:53:28.093Z,85.27
2023-02-18T23:56:10.579Z,84.85
2023-02-18T23:58:41.498Z,85.15
